createdAt,value
2019-03-29T00:01:36.841Z,8.50
2019-03-29T00:08:21.964Z,8.20
2019-03-29T00:15:08.101Z,7.90
2019-03-29T00:21:53.171Z,7.60
2019-03-29T00:28:38.047Z,7.30
2019-03-29T00:35:22.979Z,7.10
2019-03-29T00:42:07.851Z,6.90
2019-03-29T00:48:52.790Z,6.80
2019-03-29T00:55:37.639Z,6.60
2019-03-29T01:02:22.511Z,6.50
2019-03-29T01:09:07.921Z,6.40
2019-03-29T01:15:53.266Z,6.50
2019-03-29T01:22:38.220Z,6.40
2019-03-29T01:29:23.355Z,6.50
2019-03-29T01:36:08.215Z,6.60
2019-03-29T01:42:53.066Z,6.60
2019-03-29T01:49:38.010Z,6.60
2019-03-29T01:56:23.183Z,6.30
2019-03-29T02:03:08.103Z,6.20
2019-03-29T02:09:53.048Z,6.00
2019-03-29T02:16:38.178Z,6.00
2019-03-29T02:23:23.098Z,5.90
2019-03-29T02:30:09.520Z,5.80
2019-03-29T02:36:54.614Z,5.60
2019-03-29T02:43:39.648Z,5.50
2019-03-29T02:50:24.584Z,5.40
2019-03-29T02:57:09.669Z,5.30
2019-03-29T03:03:54.632Z,5.30
2019-03-29T03:10:39.499Z,5.20
2019-03-29T03:17:24.371Z,5.10
2019-03-29T03:24:09.338Z,5.00
2019-03-29T03:30:54.368Z,5.00
2019-03-29T03:37:39.387Z,5.00
2019-03-29T03:44:24.427Z,4.90
2019-03-29T03:51:10.439Z,4.90
2019-03-29T03:57:57.675Z,4.90
2019-03-29T04:04:42.280Z,4.90
2019-03-29T04:11:27.143Z,4.70
2019-03-29T04:18:15.865Z,4.60
2019-03-29T04:24:59.144Z,4.40
2019-03-29T04:31:44.186Z,4.30
2019-03-29T04:38:29.055Z,4.30
2019-03-29T04:45:14.148Z,4.30
2019-03-29T04:51:59.023Z,4.30
2019-03-29T04:58:43.893Z,4.30
2019-03-29T05:05:28.898Z,4.20
2019-03-29T05:12:13.778Z,4.20
2019-03-29T05:18:58.807Z,4.30
2019-03-29T05:25:43.688Z,4.30
2019-03-29T05:32:28.940Z,4.40
2019-03-29T05:39:14.335Z,4.50
2019-03-29T05:46:01.284Z,4.60
2019-03-29T05:52:46.716Z,4.70
2019-03-29T05:59:31.730Z,5.00
2019-03-29T06:06:16.597Z,5.30
2019-03-29T06:13:01.539Z,5.80
2019-03-29T06:19:46.503Z,6.10
2019-03-29T06:26:31.376Z,12.20
2019-03-29T06:33:16.244Z,18.70
2019-03-29T06:40:01.301Z,22.30
2019-03-29T06:46:47.245Z,25.10
2019-03-29T06:53:32.263Z,28.00
2019-03-29T07:00:17.414Z,30.40
2019-03-29T07:07:02.367Z,30.00
2019-03-29T07:13:57.267Z,31.30
2019-03-29T07:20:34.489Z,31.30
2019-03-29T07:27:19.364Z,31.00
2019-03-29T07:34:04.385Z,29.80
2019-03-29T07:40:49.255Z,29.70
2019-03-29T07:47:35.267Z,32.60
2019-03-29T07:54:20.224Z,30.90
2019-03-29T08:01:05.363Z,30.00
2019-03-29T08:07:50.230Z,31.90
2019-03-29T08:14:35.102Z,32.20
2019-03-29T08:21:19.971Z,33.60
2019-03-29T08:28:04.979Z,31.50
2019-03-29T08:34:49.922Z,27.60
2019-03-29T08:41:34.815Z,29.20
2019-03-29T08:48:19.686Z,29.30
2019-03-29T08:55:06.171Z,33.20
2019-03-29T09:01:51.371Z,32.00
2019-03-29T09:08:36.307Z,30.80
2019-03-29T09:15:21.171Z,30.30
2019-03-29T09:22:06.034Z,31.30
2019-03-29T09:28:50.895Z,30.90
2019-03-29T09:35:36.231Z,30.50
2019-03-29T09:42:29.083Z,30.90
2019-03-29T09:49:08.496Z,28.20
2019-03-29T09:55:53.666Z,28.10
2019-03-29T10:02:38.671Z,31.50
2019-03-29T10:09:23.535Z,29.10
2019-03-29T10:16:08.471Z,27.90
2019-03-29T10:22:53.396Z,25.90
2019-03-29T10:29:38.330Z,24.90
2019-03-29T10:36:23.192Z,27.10
2019-03-29T10:43:08.120Z,27.90
2019-03-29T10:49:52.970Z,27.60
2019-03-29T10:56:37.898Z,25.70
2019-03-29T11:03:23.279Z,22.30
2019-03-29T11:10:10.215Z,20.40
2019-03-29T11:16:55.165Z,19.50
2019-03-29T11:23:40.150Z,18.70
2019-03-29T11:30:25.070Z,17.90
2019-03-29T11:37:09.931Z,18.00
2019-03-29T11:43:54.898Z,17.40
2019-03-29T11:50:40.027Z,17.70
2019-03-29T11:57:25.270Z,17.50
2019-03-29T12:04:10.270Z,17.50
2019-03-29T12:10:55.285Z,17.20
2019-03-29T12:17:40.362Z,17.20
2019-03-29T12:24:25.495Z,17.10
2019-03-29T12:31:10.611Z,17.10
2019-03-29T12:37:55.535Z,17.30
2019-03-29T12:44:40.577Z,17.30
2019-03-29T12:51:26.376Z,17.50
2019-03-29T12:58:11.241Z,17.30
2019-03-29T13:04:56.172Z,17.30
2019-03-29T13:11:41.174Z,17.60
2019-03-29T13:18:26.038Z,17.50
2019-03-29T13:25:11.104Z,17.50
2019-03-29T13:31:56.044Z,17.50
2019-03-29T13:38:41.044Z,17.50
2019-03-29T13:45:27.816Z,17.50
2019-03-29T13:52:12.487Z,17.70
2019-03-29T13:58:57.338Z,17.60
2019-03-29T14:05:42.262Z,17.60
2019-03-29T14:12:27.127Z,17.50
2019-03-29T14:19:11.989Z,17.50
2019-03-29T14:25:56.847Z,17.70
2019-03-29T14:32:41.706Z,17.60
2019-03-29T14:39:26.634Z,17.60
2019-03-29T14:46:11.571Z,17.60
2019-03-29T14:52:56.442Z,17.80
2019-03-29T14:59:41.466Z,17.50
2019-03-29T15:06:26.462Z,17.70
2019-03-29T15:13:11.387Z,17.60
2019-03-29T15:19:56.252Z,17.50
2019-03-29T15:26:41.187Z,17.60
2019-03-29T15:33:26.051Z,17.70
2019-03-29T15:40:11.084Z,17.70
2019-03-29T15:46:56.018Z,17.60
2019-03-29T15:53:40.883Z,17.60
2019-03-29T16:00:25.743Z,17.70
2019-03-29T16:07:10.842Z,17.60
2019-03-29T16:13:55.770Z,17.50
2019-03-29T16:20:40.630Z,17.30
2019-03-29T16:27:25.556Z,17.20
2019-03-29T16:34:10.531Z,17.20
2019-03-29T16:40:55.829Z,17.20
2019-03-29T16:47:40.799Z,17.00
2019-03-29T16:54:25.748Z,16.90
2019-03-29T17:01:11.790Z,16.60
2019-03-29T17:07:56.683Z,16.50
2019-03-29T17:14:41.543Z,16.40
2019-03-29T17:21:26.477Z,16.10
2019-03-29T17:28:11.337Z,15.90
2019-03-29T17:34:56.392Z,15.60
2019-03-29T17:41:41.343Z,15.30
2019-03-29T17:48:26.265Z,14.90
2019-03-29T17:55:11.255Z,14.40
2019-03-29T18:02:08.810Z,14.00
2019-03-29T18:08:42.818Z,13.60
2019-03-29T18:15:27.751Z,13.50
2019-03-29T18:22:12.739Z,13.40
2019-03-29T18:28:57.612Z,13.10
2019-03-29T18:35:42.470Z,12.90
2019-03-29T18:42:27.334Z,12.70
2019-03-29T18:49:12.596Z,12.50
2019-03-29T18:55:57.458Z,12.30
2019-03-29T19:02:43.399Z,12.40
2019-03-29T19:09:31.531Z,12.60
2019-03-29T19:16:14.821Z,12.60
2019-03-29T19:23:00.023Z,12.40
2019-03-29T19:29:44.891Z,12.10
2019-03-29T19:36:29.826Z,12.10
2019-03-29T19:43:14.695Z,11.90
2019-03-29T19:49:59.555Z,11.60
2019-03-29T19:56:44.415Z,11.30
2019-03-29T20:03:29.313Z,10.90
2019-03-29T20:10:14.287Z,10.50
2019-03-29T20:16:59.225Z,10.30
2019-03-29T20:23:45.307Z,10.10
2019-03-29T20:30:30.316Z,9.90
2019-03-29T20:37:15.695Z,9.60
2019-03-29T20:44:00.718Z,9.40
2019-03-29T20:50:45.821Z,9.40
2019-03-29T20:57:30.804Z,9.40
2019-03-29T21:04:15.941Z,9.20
2019-03-29T21:11:01.381Z,9.10
2019-03-29T21:17:56.778Z,8.90
2019-03-29T21:24:34.097Z,8.80
2019-03-29T21:31:19.077Z,8.60
2019-03-29T21:38:04.435Z,8.40
2019-03-29T21:44:50.444Z,8.20
2019-03-29T21:51:35.294Z,8.10
2019-03-29T21:58:20.162Z,8.10
2019-03-29T22:05:05.880Z,8.00
2019-03-29T22:11:50.879Z,7.70
2019-03-29T22:18:38.029Z,7.50
2019-03-29T22:25:22.340Z,7.50
2019-03-29T22:32:07.239Z,7.40
2019-03-29T22:38:53.054Z,7.30
2019-03-29T22:45:38.276Z,7.10
2019-03-29T22:52:23.295Z,6.90
2019-03-29T22:59:08.742Z,6.80
2019-03-29T23:05:53.929Z,6.70
2019-03-29T23:12:39.020Z,6.60
2019-03-29T23:19:23.894Z,6.50
2019-03-29T23:26:09.217Z,6.40
2019-03-29T23:32:54.055Z,6.30
2019-03-29T23:39:38.986Z,6.40
2019-03-29T23:46:23.990Z,6.20
2019-03-29T23:53:08.979Z,6.10
2019-03-29T23:59:55.186Z,5.90
